createdAt,value
2018-07-06T00:00:17.468Z,8.70
2018-07-06T00:02:56.501Z,8.70
2018-07-06T00:05:35.548Z,9.10
2018-07-06T00:08:14.602Z,8.90
2018-07-06T00:10:53.582Z,8.55
2018-07-06T00:13:32.612Z,8.68
2018-07-06T00:16:11.552Z,8.28
2018-07-06T00:18:50.493Z,9.08
2018-07-06T00:21:29.540Z,7.83
2018-07-06T00:24:08.528Z,8.60
2018-07-06T00:26:47.520Z,8.93
2018-07-06T00:29:26.539Z,8.35
2018-07-06T00:32:05.560Z,8.90
2018-07-06T00:34:44.596Z,8.65
2018-07-06T00:37:23.710Z,9.30
2018-07-06T00:40:02.656Z,8.30
2018-07-06T00:42:41.684Z,7.60
2018-07-06T00:45:20.652Z,8.10
2018-07-06T00:47:59.596Z,7.28
2018-07-06T00:50:38.531Z,7.80
2018-07-06T00:53:17.633Z,7.57
2018-07-06T00:55:56.667Z,9.00
2018-07-06T00:58:35.756Z,8.10
2018-07-06T01:01:14.682Z,7.80
2018-07-06T01:03:53.801Z,8.05
2018-07-06T01:06:32.839Z,8.70
2018-07-06T01:09:11.723Z,8.65
2018-07-06T01:11:50.671Z,8.30
2018-07-06T01:14:29.790Z,8.15
2018-07-06T01:17:13.248Z,8.05
2018-07-06T01:19:52.184Z,8.05
2018-07-06T01:22:31.292Z,7.50
2018-07-06T01:25:10.369Z,7.03
2018-07-06T01:27:49.413Z,8.13
2018-07-06T01:30:28.433Z,8.17
2018-07-06T01:33:07.477Z,7.20
2018-07-06T01:35:46.583Z,8.07
2018-07-06T01:38:25.651Z,8.87
2018-07-06T01:41:04.639Z,7.70
2018-07-06T01:43:43.540Z,8.10
2018-07-06T01:46:22.606Z,8.40
2018-07-06T01:49:01.682Z,7.57
2018-07-06T01:51:40.707Z,6.70
2018-07-06T01:54:19.704Z,7.80
2018-07-06T01:56:58.683Z,6.93
2018-07-06T01:59:37.656Z,6.70
2018-07-06T02:02:16.653Z,6.90
2018-07-06T02:04:55.568Z,6.90
2018-07-06T02:07:34.588Z,6.37
2018-07-06T02:10:13.528Z,6.87
2018-07-06T02:12:52.759Z,6.40
2018-07-06T02:15:31.900Z,7.40
2018-07-06T02:18:10.944Z,6.30
2018-07-06T02:20:49.912Z,6.53
2018-07-06T02:23:28.860Z,5.47
2018-07-06T02:26:07.872Z,5.60
2018-07-06T02:28:46.788Z,5.75
2018-07-06T02:31:25.704Z,5.50
2018-07-06T02:34:04.824Z,5.40
2018-07-06T02:36:43.765Z,5.93
2018-07-06T02:39:22.777Z,6.50
2018-07-06T02:42:01.705Z,6.80
2018-07-06T02:44:40.740Z,6.10
2018-07-06T02:47:19.757Z,6.50
2018-07-06T02:49:58.769Z,6.33
2018-07-06T02:52:37.920Z,5.97
2018-07-06T02:55:16.992Z,6.10
2018-07-06T02:57:56.097Z,6.10
2018-07-06T03:00:35.216Z,5.90
2018-07-06T03:03:14.251Z,6.85
2018-07-06T03:05:53.223Z,5.30
2018-07-06T03:08:32.332Z,6.05
2018-07-06T03:11:11.303Z,5.75
2018-07-06T03:13:50.146Z,5.78
2018-07-06T03:16:29.076Z,4.60
2018-07-06T03:19:08.047Z,5.30
2018-07-06T03:21:46.959Z,5.50
2018-07-06T03:24:25.800Z,5.10
2018-07-06T03:27:04.820Z,5.42
2018-07-06T03:29:43.775Z,5.75
2018-07-06T03:32:22.849Z,5.47
2018-07-06T03:35:01.934Z,6.15
2018-07-06T03:37:40.805Z,5.70
2018-07-06T03:40:19.750Z,5.12
2018-07-06T03:42:58.665Z,5.60
2018-07-06T03:45:37.636Z,5.62
2018-07-06T03:48:16.443Z,5.47
2018-07-06T03:50:55.540Z,6.55
2018-07-06T03:53:34.504Z,6.08
2018-07-06T03:56:13.477Z,6.15
2018-07-06T03:58:52.456Z,5.83
2018-07-06T04:01:31.404Z,5.12
2018-07-06T04:04:10.300Z,5.47
2018-07-06T04:06:49.494Z,5.50
2018-07-06T04:09:28.526Z,4.80
2018-07-06T04:12:07.414Z,5.30
2018-07-06T04:14:46.390Z,5.47
2018-07-06T04:17:25.270Z,5.50
2018-07-06T04:20:04.242Z,4.85
2018-07-06T04:22:43.285Z,4.97
2018-07-06T04:25:22.138Z,5.30
2018-07-06T04:28:00.928Z,5.50
2018-07-06T04:30:39.876Z,5.13
2018-07-06T04:33:18.806Z,5.22
2018-07-06T04:35:57.851Z,5.70
2018-07-06T04:38:36.850Z,5.20
2018-07-06T04:41:15.906Z,4.85
2018-07-06T04:43:54.818Z,4.50
2018-07-06T04:46:33.808Z,5.40
2018-07-06T04:49:12.882Z,4.37
2018-07-06T04:51:51.766Z,5.33
2018-07-06T04:54:30.690Z,6.33
2018-07-06T04:57:09.600Z,5.70
2018-07-06T04:59:48.510Z,5.50
2018-07-06T05:02:27.557Z,5.87
2018-07-06T05:05:06.466Z,5.22
2018-07-06T05:07:45.485Z,5.47
2018-07-06T05:10:24.347Z,6.05
2018-07-06T05:13:03.378Z,6.20
2018-07-06T05:15:42.382Z,6.47
2018-07-06T05:18:21.457Z,6.20
2018-07-06T05:21:00.348Z,7.23
2018-07-06T05:23:39.266Z,6.43
2018-07-06T05:26:18.247Z,7.60
2018-07-06T05:28:57.121Z,7.60
2018-07-06T05:31:36.729Z,7.37
2018-07-06T05:34:15.661Z,8.03
2018-07-06T05:36:55.038Z,6.92
2018-07-06T05:39:33.892Z,7.90
2018-07-06T05:42:12.878Z,7.65
2018-07-06T05:44:51.893Z,8.35
2018-07-06T05:47:30.789Z,6.75
2018-07-06T05:50:09.642Z,7.92
2018-07-06T05:52:48.746Z,7.37
2018-07-06T05:55:27.778Z,6.40
2018-07-06T05:58:06.760Z,6.90
2018-07-06T06:00:45.766Z,6.90
2018-07-06T06:03:24.649Z,7.72
2018-07-06T06:06:03.587Z,6.28
2018-07-06T06:08:30.145Z,6.17
2018-07-06T06:10:57.801Z,7.00
2018-07-06T06:13:25.490Z,6.83
2018-07-06T06:15:53.104Z,6.10
2018-07-06T06:18:20.802Z,6.50
2018-07-06T06:20:48.425Z,6.93
2018-07-06T06:23:16.074Z,6.45
2018-07-06T06:25:43.749Z,6.78
2018-07-06T06:28:11.397Z,5.70
2018-07-06T06:30:39.107Z,5.90
2018-07-06T06:33:06.832Z,6.77
2018-07-06T06:35:34.926Z,6.55
2018-07-06T06:38:02.634Z,6.42
2018-07-06T06:40:30.362Z,7.03
2018-07-06T06:42:58.140Z,6.60
2018-07-06T06:45:25.814Z,7.15
2018-07-06T06:47:53.568Z,7.62
2018-07-06T06:50:21.201Z,7.22
2018-07-06T06:52:48.958Z,6.62
2018-07-06T06:55:16.713Z,6.28
2018-07-06T06:57:44.415Z,6.45
2018-07-06T07:00:12.066Z,8.28
2018-07-06T07:02:39.826Z,8.55
2018-07-06T07:05:07.618Z,8.03
2018-07-06T07:07:35.391Z,7.60
2018-07-06T07:10:03.114Z,7.57
2018-07-06T07:12:30.879Z,7.33
2018-07-06T07:14:58.562Z,6.73
2018-07-06T07:17:26.318Z,7.67
2018-07-06T07:19:54.044Z,6.80
2018-07-06T07:22:21.731Z,6.90
2018-07-06T07:24:49.470Z,6.00
2018-07-06T07:27:17.195Z,5.87
2018-07-06T07:29:44.955Z,6.60
2018-07-06T07:32:12.599Z,5.60
2018-07-06T07:34:40.402Z,5.63
2018-07-06T07:37:08.068Z,5.73
2018-07-06T07:39:35.752Z,5.00
2018-07-06T07:42:03.422Z,5.33
2018-07-06T07:44:31.142Z,5.63
2018-07-06T07:46:59.106Z,5.20
2018-07-06T07:49:26.733Z,4.87
2018-07-06T07:52:11.365Z,5.50
2018-07-06T07:54:44.459Z,4.65
2018-07-06T07:57:12.182Z,4.47
2018-07-06T07:59:40.014Z,5.57
2018-07-06T08:02:07.712Z,5.80
2018-07-06T08:04:35.440Z,5.10
2018-07-06T08:07:03.178Z,5.43
2018-07-06T08:09:31.546Z,4.80
2018-07-06T08:12:00.695Z,5.40
2018-07-06T08:14:28.418Z,4.60
2018-07-06T08:16:56.205Z,4.70
2018-07-06T08:19:23.834Z,5.15
2018-07-06T08:21:51.502Z,4.87
2018-07-06T08:24:19.992Z,4.70
2018-07-06T08:26:48.038Z,4.67
2018-07-06T08:29:15.684Z,4.03
2018-07-06T08:31:43.629Z,4.60
2018-07-06T08:34:22.760Z,4.70
2018-07-06T08:37:33.210Z,5.10
2018-07-06T08:40:00.872Z,4.97
2018-07-06T08:42:29.786Z,4.23
2018-07-06T08:44:58.296Z,3.90
2018-07-06T08:47:26.081Z,4.83
2018-07-06T08:49:54.614Z,3.83
2018-07-06T08:52:22.320Z,3.63
2018-07-06T08:54:50.757Z,4.00
2018-07-06T08:57:19.386Z,5.10
2018-07-06T08:59:47.445Z,5.00
2018-07-06T09:02:15.142Z,4.40
2018-07-06T09:04:42.775Z,4.87
2018-07-06T09:07:10.449Z,4.60
2018-07-06T09:09:38.428Z,5.07
2018-07-06T09:12:06.455Z,5.17
2018-07-06T09:14:34.123Z,4.73
2018-07-06T09:17:01.762Z,5.00
2018-07-06T09:19:29.508Z,4.70
2018-07-06T09:21:57.199Z,4.40
2018-07-06T09:24:24.863Z,4.50
2018-07-06T09:26:52.645Z,3.80
2018-07-06T09:29:20.350Z,3.97
2018-07-06T09:31:47.970Z,3.40
2018-07-06T09:34:15.634Z,3.80
2018-07-06T09:36:43.528Z,4.10
2018-07-06T09:39:12.225Z,4.20
2018-07-06T09:41:39.969Z,5.23
2018-07-06T09:44:07.884Z,4.70
2018-07-06T09:46:36.029Z,5.37
2018-07-06T09:49:03.806Z,5.50
2018-07-06T09:51:31.495Z,6.63
2018-07-06T09:53:59.222Z,6.10
2018-07-06T09:56:26.886Z,7.20
2018-07-06T09:58:54.546Z,6.13
2018-07-06T10:01:22.182Z,6.70
2018-07-06T10:03:49.846Z,6.97
2018-07-06T10:06:17.466Z,7.33
2018-07-06T10:08:45.141Z,6.03
2018-07-06T10:11:12.793Z,5.10
2018-07-06T10:13:40.456Z,5.00
2018-07-06T10:16:08.131Z,5.47
2018-07-06T10:18:35.783Z,4.83
2018-07-06T10:21:03.446Z,4.13
2018-07-06T10:23:31.122Z,3.90
2018-07-06T10:25:58.834Z,3.93
2018-07-06T10:30:40.695Z,4.07
2018-07-06T10:33:08.946Z,3.40
2018-07-06T10:35:37.010Z,3.63
2018-07-06T10:38:04.816Z,3.00
2018-07-06T10:40:32.481Z,3.37
2018-07-06T10:43:00.140Z,2.97
2018-07-06T10:45:27.774Z,3.43
2018-07-06T10:47:55.416Z,3.63
2018-07-06T10:50:23.106Z,3.67
2018-07-06T10:52:50.797Z,3.43
2018-07-06T10:55:18.565Z,3.00
2018-07-06T10:57:46.216Z,2.80
2018-07-06T11:00:13.991Z,2.40
2018-07-06T11:02:41.692Z,2.50
2018-07-06T11:05:09.353Z,3.00
2018-07-06T11:07:37.048Z,2.57
2018-07-06T11:10:04.803Z,2.53
2018-07-06T11:12:32.597Z,2.37
2018-07-06T11:15:00.274Z,2.93
2018-07-06T11:17:27.946Z,2.30
2018-07-06T11:19:55.698Z,2.40
2018-07-06T11:22:23.341Z,2.43
2018-07-06T11:24:51.009Z,2.30
2018-07-06T11:27:18.682Z,2.43
2018-07-06T11:29:46.419Z,2.70
2018-07-06T11:32:14.201Z,2.00
2018-07-06T11:34:41.756Z,2.53
2018-07-06T11:37:09.442Z,2.80
2018-07-06T11:39:37.119Z,3.00
2018-07-06T11:42:04.822Z,2.80
2018-07-06T11:44:32.545Z,3.40
2018-07-06T11:47:00.170Z,2.47
2018-07-06T11:49:27.861Z,3.30
2018-07-06T11:51:55.555Z,3.37
2018-07-06T11:54:23.246Z,3.17
2018-07-06T11:56:51.052Z,3.53
2018-07-06T11:59:18.706Z,3.57
2018-07-06T12:01:46.412Z,4.60
2018-07-06T12:04:14.125Z,3.53
2018-07-06T12:06:41.788Z,3.60
2018-07-06T12:09:09.518Z,3.40
2018-07-06T12:11:37.124Z,4.07
2018-07-06T12:14:04.849Z,3.20
2018-07-06T12:16:32.501Z,3.23
2018-07-06T12:19:00.164Z,3.20
2018-07-06T12:21:27.883Z,2.93
2018-07-06T12:23:55.534Z,3.60
2018-07-06T12:26:23.206Z,3.53
2018-07-06T12:28:50.883Z,3.10
2018-07-06T12:31:18.565Z,2.83
2018-07-06T12:33:46.283Z,2.73
2018-07-06T12:36:14.014Z,3.20
2018-07-06T12:38:41.665Z,2.93
2018-07-06T12:41:09.384Z,3.70
2018-07-06T12:43:37.027Z,3.30
2018-07-06T12:46:04.800Z,3.23
2018-07-06T12:48:32.495Z,3.03
2018-07-06T12:51:00.144Z,3.63
2018-07-06T12:53:27.776Z,4.00
2018-07-06T12:55:55.484Z,3.43
2018-07-06T12:58:23.169Z,3.33
2018-07-06T13:00:50.934Z,3.53
2018-07-06T13:03:18.590Z,2.97
2018-07-06T13:05:46.286Z,3.00
2018-07-06T13:08:14.001Z,3.60
2018-07-06T13:10:41.670Z,3.63
2018-07-06T13:13:09.346Z,3.60
2018-07-06T13:15:37.036Z,3.40
2018-07-06T13:18:04.836Z,3.20
2018-07-06T13:20:32.557Z,3.40
2018-07-06T13:23:00.248Z,3.80
2018-07-06T13:25:27.966Z,3.20
2018-07-06T13:27:55.639Z,3.63
2018-07-06T13:30:23.374Z,3.63
2018-07-06T13:32:51.102Z,4.00
2018-07-06T13:35:18.800Z,3.97
2018-07-06T13:37:46.462Z,3.33
2018-07-06T13:40:14.110Z,3.73
2018-07-06T13:42:41.802Z,4.03
2018-07-06T13:45:09.486Z,3.67
2018-07-06T13:47:37.123Z,3.90
2018-07-06T13:50:04.767Z,3.77
2018-07-06T13:52:32.420Z,3.70
2018-07-06T13:55:00.070Z,5.00
2018-07-06T13:57:27.779Z,4.47
2018-07-06T13:59:55.429Z,3.50
2018-07-06T14:02:23.151Z,4.53
2018-07-06T14:04:50.802Z,3.97
2018-07-06T14:07:18.535Z,4.40
2018-07-06T14:09:46.185Z,4.03
2018-07-06T14:12:13.824Z,4.30
2018-07-06T14:14:41.452Z,3.63
2018-07-06T14:17:09.127Z,4.27
2018-07-06T14:19:36.777Z,4.20
2018-07-06T14:22:04.636Z,3.50
2018-07-06T14:24:32.262Z,4.63
2018-07-06T14:26:59.982Z,3.77
2018-07-06T14:29:27.882Z,4.33
2018-07-06T14:31:55.522Z,4.63
2018-07-06T14:34:23.202Z,4.00
2018-07-06T14:36:50.898Z,3.67
2018-07-06T14:39:18.589Z,3.60
2018-07-06T14:41:46.310Z,3.90
2018-07-06T14:44:13.941Z,3.80
2018-07-06T14:46:41.583Z,3.90
2018-07-06T14:49:09.550Z,3.30
2018-07-06T14:51:37.185Z,4.13
2018-07-06T14:54:04.857Z,3.50
2018-07-06T14:56:32.511Z,3.47
2018-07-06T14:59:00.181Z,3.50
2018-07-06T15:01:27.950Z,3.40
2018-07-06T15:03:55.624Z,3.73
2018-07-06T15:06:23.268Z,3.20
2018-07-06T15:08:50.975Z,3.80
2018-07-06T15:11:18.598Z,3.23
2018-07-06T15:13:46.241Z,3.73
2018-07-06T15:16:13.905Z,3.40
2018-07-06T15:18:41.520Z,3.20
2018-07-06T15:21:09.177Z,2.93
2018-07-06T15:23:36.866Z,3.37
2018-07-06T15:26:04.682Z,3.43
2018-07-06T15:28:32.374Z,3.40
2018-07-06T15:31:00.067Z,3.50
2018-07-06T15:33:27.818Z,3.63
2018-07-06T15:35:55.475Z,3.80
2018-07-06T15:38:23.165Z,3.43
2018-07-06T15:40:50.854Z,3.67
2018-07-06T15:43:18.478Z,3.50
2018-07-06T15:45:46.130Z,3.43
2018-07-06T15:48:13.818Z,3.60
2018-07-06T15:50:41.497Z,3.30
2018-07-06T15:53:09.477Z,3.30
2018-07-06T15:55:37.476Z,2.87
2018-07-06T15:58:05.320Z,3.60
2018-07-06T16:00:33.085Z,3.13
2018-07-06T16:03:00.860Z,3.40
2018-07-06T16:05:28.894Z,3.27
2018-07-06T16:07:56.602Z,3.40
2018-07-06T16:10:24.330Z,3.80
2018-07-06T16:12:52.010Z,3.70
2018-07-06T16:15:19.651Z,4.17
2018-07-06T16:17:47.398Z,4.27
2018-07-06T16:20:15.015Z,4.20
2018-07-06T16:22:42.683Z,3.90
2018-07-06T16:25:10.385Z,4.00
2018-07-06T16:27:38.138Z,4.07
2018-07-06T16:30:05.861Z,4.60
2018-07-06T16:32:33.550Z,4.00
2018-07-06T16:35:01.241Z,4.27
2018-07-06T16:37:28.969Z,4.40
2018-07-06T16:39:56.643Z,4.03
2018-07-06T16:42:24.310Z,3.87
2018-07-06T16:44:51.953Z,4.83
2018-07-06T16:47:19.634Z,5.77
2018-07-06T16:49:47.301Z,4.47
2018-07-06T16:52:14.997Z,4.60
2018-07-06T16:54:42.622Z,4.00
2018-07-06T16:57:10.347Z,4.10
2018-07-06T16:59:37.994Z,4.00
2018-07-06T17:02:05.715Z,4.00
2018-07-06T17:04:33.414Z,4.17
2018-07-06T17:07:01.121Z,4.00
2018-07-06T17:09:28.817Z,3.53
2018-07-06T17:11:56.530Z,4.00
2018-07-06T17:14:24.297Z,2.83
2018-07-06T17:16:52.008Z,3.60
2018-07-06T17:19:19.741Z,3.00
2018-07-06T17:21:47.419Z,2.97
2018-07-06T17:24:15.113Z,3.23
2018-07-06T17:26:42.752Z,3.17
2018-07-06T17:29:10.406Z,3.10
2018-07-06T17:31:38.135Z,3.60
2018-07-06T17:34:05.735Z,3.30
2018-07-06T17:36:33.391Z,3.67
2018-07-06T17:39:01.101Z,4.10
2018-07-06T17:41:28.720Z,3.93
2018-07-06T17:43:56.354Z,4.50
2018-07-06T17:46:23.968Z,3.50
2018-07-06T17:48:51.642Z,3.27
2018-07-06T17:51:19.292Z,3.80
2018-07-06T17:53:46.930Z,3.97
2018-07-06T17:56:14.635Z,3.93
2018-07-06T17:58:42.277Z,4.00
2018-07-06T18:01:10.080Z,3.37
2018-07-06T18:03:37.802Z,3.20
2018-07-06T18:06:05.569Z,3.20
2018-07-06T18:08:33.191Z,3.37
2018-07-06T18:11:00.965Z,3.53
2018-07-06T18:13:28.658Z,3.40
2018-07-06T18:15:56.428Z,3.40
2018-07-06T18:18:24.211Z,3.50
2018-07-06T18:20:51.991Z,3.83
2018-07-06T18:23:19.721Z,3.30
2018-07-06T18:25:47.417Z,3.30
2018-07-06T18:28:15.118Z,3.17
2018-07-06T18:30:42.787Z,3.63
2018-07-06T18:33:10.445Z,3.47
2018-07-06T18:35:38.237Z,3.43
2018-07-06T18:38:05.902Z,3.30
2018-07-06T18:40:33.542Z,3.47
2018-07-06T18:43:01.269Z,3.07
2018-07-06T18:45:28.978Z,3.27
2018-07-06T18:47:56.650Z,2.90
2018-07-06T18:50:24.293Z,3.20
2018-07-06T18:52:52.160Z,2.97
2018-07-06T18:55:19.802Z,3.00
2018-07-06T18:57:47.522Z,2.90
2018-07-06T19:00:15.174Z,3.07
2018-07-06T19:02:42.790Z,3.10
2018-07-06T19:05:10.476Z,3.20
2018-07-06T19:07:38.190Z,2.33
2018-07-06T19:10:06.217Z,2.90
2018-07-06T19:12:33.903Z,2.97
2018-07-06T19:15:01.592Z,2.80
2018-07-06T19:17:29.650Z,3.07
2018-07-06T19:19:57.307Z,3.20
2018-07-06T19:22:24.987Z,2.67
2018-07-06T19:24:52.650Z,3.13
2018-07-06T19:27:20.397Z,3.47
2018-07-06T19:29:48.042Z,3.40
2018-07-06T19:32:15.658Z,2.70
2018-07-06T19:34:43.338Z,2.80
2018-07-06T19:37:11.019Z,3.40
2018-07-06T19:39:38.632Z,3.30
2018-07-06T19:42:06.296Z,3.50
2018-07-06T19:44:33.917Z,3.13
2018-07-06T19:47:01.570Z,3.40
2018-07-06T19:49:29.238Z,3.57
2018-07-06T19:51:56.870Z,3.80
2018-07-06T19:54:24.960Z,3.40
2018-07-06T19:56:52.638Z,3.40
2018-07-06T19:59:20.554Z,4.07
2018-07-06T20:01:48.253Z,3.77
2018-07-06T20:04:15.883Z,4.10
2018-07-06T20:06:43.539Z,3.20
2018-07-06T20:09:11.258Z,3.67
2018-07-06T20:11:38.952Z,3.37
2018-07-06T20:14:06.578Z,3.70
2018-07-06T20:16:34.314Z,4.07
2018-07-06T20:19:02.045Z,3.97
2018-07-06T20:21:29.742Z,3.90
2018-07-06T20:23:57.436Z,3.03
2018-07-06T20:26:25.033Z,4.07
2018-07-06T20:28:52.736Z,4.33
2018-07-06T20:31:20.354Z,3.50
2018-07-06T20:33:48.839Z,4.07
2018-07-06T20:36:16.525Z,4.00
2018-07-06T20:38:44.179Z,4.30
2018-07-06T20:41:11.842Z,4.00
2018-07-06T20:43:39.494Z,3.80
2018-07-06T20:46:07.191Z,3.55
2018-07-06T20:48:34.942Z,3.98
2018-07-06T20:51:02.727Z,3.85
2018-07-06T20:53:30.350Z,3.77
2018-07-06T20:55:57.972Z,4.10
2018-07-06T20:58:25.723Z,4.30
2018-07-06T21:00:53.348Z,4.75
2018-07-06T21:03:21.006Z,4.72
2018-07-06T21:05:48.658Z,4.20
2018-07-06T21:08:16.266Z,4.20
2018-07-06T21:10:43.918Z,4.22
2018-07-06T21:13:11.552Z,3.95
2018-07-06T21:15:39.205Z,3.83
2018-07-06T21:18:07.283Z,4.28
2018-07-06T21:20:34.948Z,4.55
2018-07-06T21:23:02.584Z,4.17
2018-07-06T21:25:30.238Z,4.30
2018-07-06T21:27:57.870Z,4.60
2018-07-06T21:30:25.513Z,5.12
2018-07-06T21:32:53.180Z,4.50
2018-07-06T21:35:20.848Z,5.40
2018-07-06T21:37:48.517Z,4.45
2018-07-06T21:40:16.150Z,4.90
2018-07-06T21:42:43.818Z,4.72
2018-07-06T21:45:11.478Z,5.60
2018-07-06T21:47:39.114Z,5.45
2018-07-06T21:50:06.795Z,5.15
2018-07-06T21:52:34.470Z,5.95
2018-07-06T21:55:02.113Z,5.20
2018-07-06T21:57:29.832Z,5.10
2018-07-06T21:59:57.455Z,4.70
2018-07-06T22:02:25.127Z,5.75
2018-07-06T22:04:52.778Z,5.30
2018-07-06T22:07:20.447Z,5.35
2018-07-06T22:09:47.968Z,5.23
2018-07-06T22:12:15.658Z,5.20
2018-07-06T22:14:43.299Z,5.72
2018-07-06T22:17:10.974Z,5.50
2018-07-06T22:19:38.751Z,5.22
2018-07-06T22:22:06.610Z,5.28
2018-07-06T22:24:34.285Z,5.00
2018-07-06T22:27:01.939Z,5.50
2018-07-06T22:29:29.620Z,6.05
2018-07-06T22:31:57.429Z,5.20
2018-07-06T22:34:25.396Z,4.97
2018-07-06T22:36:53.093Z,5.05
2018-07-06T22:39:20.775Z,4.90
2018-07-06T22:41:48.873Z,5.10
2018-07-06T22:44:16.544Z,5.83
2018-07-06T22:46:44.197Z,5.60
2018-07-06T22:49:11.827Z,5.50
2018-07-06T22:51:39.501Z,5.37
2018-07-06T22:54:07.249Z,5.85
2018-07-06T22:56:34.958Z,4.83
2018-07-06T22:59:02.621Z,4.92
2018-07-06T23:01:30.370Z,6.10
2018-07-06T23:03:58.022Z,5.35
2018-07-06T23:06:25.732Z,5.62
2018-07-06T23:08:53.352Z,5.90
2018-07-06T23:11:21.025Z,5.22
2018-07-06T23:13:48.670Z,5.42
2018-07-06T23:16:16.328Z,5.90
2018-07-06T23:18:44.050Z,5.65
2018-07-06T23:21:11.716Z,5.20
2018-07-06T23:23:39.378Z,5.50
2018-07-06T23:26:07.066Z,5.35
2018-07-06T23:28:34.735Z,5.30
2018-07-06T23:31:02.427Z,5.70
2018-07-06T23:33:30.069Z,5.70
2018-07-06T23:35:57.720Z,5.10
2018-07-06T23:38:25.365Z,5.45
2018-07-06T23:40:53.031Z,5.70
2018-07-06T23:43:20.677Z,6.03
2018-07-06T23:45:48.333Z,6.40
2018-07-06T23:48:15.936Z,5.70
2018-07-06T23:50:43.602Z,6.17
2018-07-06T23:53:11.244Z,5.80
2018-07-06T23:55:38.943Z,5.67
2018-07-06T23:58:06.617Z,6.12
